Terminal Aerodrome Forecast
Issued by NWS Shreveport, LA

Home | Current Version | Previous Version | Text Only | Print | Product List | Glossary On
Versions: 1 2 3 4 5 6 7 8 9 10 11 12 13 14 15 16 17
000
FTUS44 KSHV 051146
TAFSHV
TAF
KSHV 051146Z 0512/0612 21006KT P6SM OVC007
      TEMPO 0512/0514 OVC015
     FM051400 22007KT P6SM BKN025 OVC100
     FM051500 22008KT P6SM SCT035 BKN045 OVC100
     FM051800 22007KT P6SM VCTS BKN050CB
      TEMPO 0519/0522 6SM -TSRA BKN045CB OVC080
     FM052200 23008KT P6SM BKN050 BKN150
     FM060000 19005KT P6SM BKN050 BKN250
     FM060900 19007KT P6SM OVC007=

USA.gov is the U.S. government's official web portal to all federal, state and local government web resources and services.